sensor_id;sensor_type;location;lat;lon;timestamp;pressure;altitude;pressure_sealevel;temperature;humidity
18784;BME280;9520;50.954;6.968;2022-12-10T00:00:00;100173.44;;;8.84;45.71
18784;BME280;9520;50.954;6.968;2022-12-10T00:00:25;100166.47;;;8.82;45.45
18784;BME280;9520;50.954;6.968;2022-12-10T00:00:47;100172.56;;;8.84;45.33
18784;BME280;9520;50.954;6.968;2022-12-10T00:01:10;100176.13;;;8.81;45.51
18784;BME280;9520;50.954;6.968;2022-12-10T00:01:33;100174.38;;;8.82;45.75
18784;BME280;9520;50.954;6.968;2022-12-10T00:01:57;100178.75;;;8.83;45.55
18784;BME280;9520;50.954;6.968;2022-12-10T00:02:18;100175.19;;;8.85;45.73
18784;BME280;9520;50.954;6.968;2022-12-10T00:02:40;100173.47;;;8.83;45.39
18784;BME280;9520;50.954;6.968;2022-12-10T00:03:01;100175.25;;;8.82;45.71
18784;BME280;9520;50.954;6.968;2022-12-10T00:03:25;100175.25;;;8.82;45.62
18784;BME280;9520;50.954;6.968;2022-12-10T00:03:47;100183.09;;;8.84;45.53
18784;BME280;9520;50.954;6.968;2022-12-10T00:04:09;100176.13;;;8.83;45.54
18784;BME280;9520;50.954;6.968;2022-12-10T00:04:31;100173.47;;;8.83;45.44
18784;BME280;9520;50.954;6.968;2022-12-10T00:04:53;100175.25;;;8.82;45.78
18784;BME280;9520;50.954;6.968;2022-12-10T00:05:15;100170.06;;;8.78;45.55
18784;BME280;9520;50.954;6.968;2022-12-10T00:05:37;100177.00;;;8.80;45.78
18784;BME280;9520;50.954;6.968;2022-12-10T00:06:00;100177.94;;;8.78;46.01
18784;BME280;9520;50.954;6.968;2022-12-10T00:06:24;100182.28;;;8.79;45.70
18784;BME280;9520;50.954;6.968;2022-12-10T00:06:47;100179.66;;;8.79;45.89
18784;BME280;9520;50.954;6.968;2022-12-10T00:07:09;100180.56;;;8.78;46.06
18784;BME280;9520;50.954;6.968;2022-12-10T00:07:30;100178.78;;;8.78;46.02
18784;BME280;9520;50.954;6.968;2022-12-10T00:07:53;100178.78;;;8.78;45.88
18784;BME280;9520;50.954;6.968;2022-12-10T00:08:15;100182.28;;;8.79;45.75
18784;BME280;9520;50.954;6.968;2022-12-10T00:08:37;100180.53;;;8.79;45.92
18784;BME280;9520;50.954;6.968;2022-12-10T00:08:59;100187.59;;;8.76;45.71
18784;BME280;9520;50.954;6.968;2022-12-10T00:09:21;100177.97;;;8.75;45.85
18784;BME280;9520;50.954;6.968;2022-12-10T00:09:44;100178.91;;;8.72;45.91
18784;BME280;9520;50.954;6.968;2022-12-10T00:10:06;100178.84;;;8.74;45.85
18784;BME280;9520;50.954;6.968;2022-12-10T00:10:31;100174.63;;;8.66;45.78
18784;BME280;9520;50.954;6.968;2022-12-10T00:10:53;100175.44;;;8.68;45.66
18784;BME280;9520;50.954;6.968;2022-12-10T00:11:16;100175.47;;;8.67;45.81
18784;BME280;9520;50.954;6.968;2022-12-10T00:11:40;100163.38;;;8.57;46.02
18784;BME280;9520;50.954;6.968;2022-12-10T00:12:02;100178.06;;;8.68;45.90
18784;BME280;9520;50.954;6.968;2022-12-10T00:12:23;100174.63;;;8.66;46.02
18784;BME280;9520;50.954;6.968;2022-12-10T00:12:45;100172.78;;;8.72;45.79
18784;BME280;9520;50.954;6.968;2022-12-10T00:13:07;100178.03;;;8.72;45.95
18784;BME280;9520;50.954;6.968;2022-12-10T00:13:29;100171.03;;;8.72;45.73
18784;BME280;9520;50.954;6.968;2022-12-10T00:13:51;100173.66;;;8.72;45.74
18784;BME280;9520;50.954;6.968;2022-12-10T00:14:14;100179.78;;;8.73;46.00
18784;BME280;9520;50.954;6.968;2022-12-10T00:14:36;100179.78;;;8.73;45.87
18784;BME280;9520;50.954;6.968;2022-12-10T00:14:58;100178.91;;;8.72;45.61
18784;BME280;9520;50.954;6.968;2022-12-10T00:15:20;100168.38;;;8.72;45.57
18784;BME280;9520;50.954;6.968;2022-12-10T00:15:41;100177.16;;;8.71;45.90
18784;BME280;9520;50.954;6.968;2022-12-10T00:16:04;100173.72;;;8.68;46.02
18784;BME280;9520;50.954;6.968;2022-12-10T00:16:28;100177.19;;;8.70;45.59
18784;BME280;9520;50.954;6.968;2022-12-10T00:16:51;100177.19;;;8.70;45.72
18784;BME280;9520;50.954;6.968;2022-12-10T00:17:13;100171.09;;;8.68;45.77
18784;BME280;9520;50.954;6.968;2022-12-10T00:17:35;100174.63;;;8.66;45.86
18784;BME280;9520;50.954;6.968;2022-12-10T00:17:56;100174.63;;;8.63;45.90
18784;BME280;9520;50.954;6.968;2022-12-10T00:18:19;100169.44;;;8.62;45.96
18784;BME280;9520;50.954;6.968;2022-12-10T00:18:42;100173.75;;;8.64;46.07
18784;BME280;9520;50.954;6.968;2022-12-10T00:19:04;100176.38;;;8.64;45.80
18784;BME280;9520;50.954;6.968;2022-12-10T00:19:26;100173.75;;;8.64;45.97
18784;BME280;9520;50.954;6.968;2022-12-10T00:19:49;100173.75;;;8.66;45.62
18784;BME280;9520;50.954;6.968;2022-12-10T00:20:10;100173.75;;;8.64;45.76
18784;BME280;9520;50.954;6.968;2022-12-10T00:20:32;100172.94;;;8.62;45.80
18784;BME280;9520;50.954;6.968;2022-12-10T00:20:54;100173.75;;;8.64;45.67
18784;BME280;9520;50.954;6.968;2022-12-10T00:21:19;100172.88;;;8.65;45.58
18784;BME280;9520;50.954;6.968;2022-12-10T00:21:41;100177.25;;;8.63;45.65
18784;BME280;9520;50.954;6.968;2022-12-10T00:22:04;100169.44;;;8.62;45.69
18784;BME280;9520;50.954;6.968;2022-12-10T00:22:26;100178.19;;;8.61;45.79
18784;BME280;9520;50.954;6.968;2022-12-10T00:22:48;100165.06;;;8.59;45.85
18784;BME280;9520;50.954;6.968;2022-12-10T00:23:10;100168.56;;;8.61;45.82
18784;BME280;9520;50.954;6.968;2022-12-10T00:23:32;100148.56;;;8.50;46.04
18784;BME280;9520;50.954;6.968;2022-12-10T00:23:55;100172.94;;;8.62;45.84
18784;BME280;9520;50.954;6.968;2022-12-10T00:24:18;100167.66;;;8.62;45.98
18784;BME280;9520;50.954;6.968;2022-12-10T00:24:39;100172.94;;;8.62;45.95
18784;BME280;9520;50.954;6.968;2022-12-10T00:25:01;100167.69;;;8.59;45.63
18784;BME280;9520;50.954;6.968;2022-12-10T00:25:23;100169.44;;;8.60;45.86
18784;BME280;9520;50.954;6.968;2022-12-10T00:25:45;100175.56;;;8.62;45.88
18784;BME280;9520;50.954;6.968;2022-12-10T00:26:11;100179.00;;;8.64;45.78
18784;BME280;9520;50.954;6.968;2022-12-10T00:26:35;100165.94;;;8.61;45.76
18784;BME280;9520;50.954;6.968;2022-12-10T00:26:57;100171.19;;;8.60;45.99
18784;BME280;9520;50.954;6.968;2022-12-10T00:27:20;100167.75;;;8.56;45.94
18784;BME280;9520;50.954;6.968;2022-12-10T00:27:41;100170.44;;;8.53;46.10
18784;BME280;9520;50.954;6.968;2022-12-10T00:28:03;100151.34;;;8.41;46.06
18784;BME280;9520;50.954;6.968;2022-12-10T00:28:25;100170.44;;;8.53;46.14
18784;BME280;9520;50.954;6.968;2022-12-10T00:28:47;100175.69;;;8.53;45.98
18784;BME280;9520;50.954;6.968;2022-12-10T00:29:11;100173.91;;;8.55;46.15
18784;BME280;9520;50.954;6.968;2022-12-10T00:29:33;100174.84;;;8.51;45.77
18784;BME280;9520;50.954;6.968;2022-12-10T00:29:55;100173.09;;;8.50;45.96
18784;BME280;9520;50.954;6.968;2022-12-10T00:30:17;100176.59;;;8.52;45.78
18784;BME280;9520;50.954;6.968;2022-12-10T00:30:39;100180.03;;;8.54;45.87
18784;BME280;9520;50.954;6.968;2022-12-10T00:31:02;100168.69;;;8.52;45.63
18784;BME280;9520;50.954;6.968;2022-12-10T00:31:26;100177.47;;;8.53;45.65
18784;BME280;9520;50.954;6.968;2022-12-10T00:31:48;100170.44;;;8.53;45.87
18784;BME280;9520;50.954;6.968;2022-12-10T00:32:11;100175.66;;;8.55;45.80
18784;BME280;9520;50.954;6.968;2022-12-10T00:32:33;100171.34;;;8.51;45.77
18784;BME280;9520;50.954;6.968;2022-12-10T00:32:55;100171.34;;;8.52;45.95
18784;BME280;9520;50.954;6.968;2022-12-10T00:33:16;100171.41;;;8.46;45.73
18784;BME280;9520;50.954;6.968;2022-12-10T00:33:38;100173.16;;;8.47;46.07
18784;BME280;9520;50.954;6.968;2022-12-10T00:34:03;100174.84;;;8.51;45.89
18784;BME280;9520;50.954;6.968;2022-12-10T00:34:26;100168.78;;;8.46;45.58
18784;BME280;9520;50.954;6.968;2022-12-10T00:34:48;100180.09;;;8.51;45.99
18784;BME280;9520;50.954;6.968;2022-12-10T00:35:09;100180.09;;;8.53;45.96
18784;BME280;9520;50.954;6.968;2022-12-10T00:35:35;100175.66;;;8.55;45.71
18784;BME280;9520;50.954;6.968;2022-12-10T00:36:01;100178.34;;;8.50;45.86
18784;BME280;9520;50.954;6.968;2022-12-10T00:36:26;100182.66;;;8.54;45.82
18784;BME280;9520;50.954;6.968;2022-12-10T00:36:49;100175.72;;;8.52;45.84
18784;BME280;9520;50.954;6.968;2022-12-10T00:37:11;100180.16;;;8.48;46.05
18784;BME280;9520;50.954;6.968;2022-12-10T00:37:33;100181.88;;;8.49;45.97
18784;BME280;9520;50.954;6.968;2022-12-10T00:37:55;100177.53;;;8.47;46.13
18784;BME280;9520;50.954;6.968;2022-12-10T00:38:17;100179.31;;;8.45;45.81
18784;BME280;9520;50.954;6.968;2022-12-10T00:38:40;100174.09;;;8.42;45.96
18784;BME280;9520;50.954;6.968;2022-12-10T00:39:04;100166.31;;;8.36;46.26
18784;BME280;9520;50.954;6.968;2022-12-10T00:39:26;100173.22;;;8.43;45.81
18784;BME280;9520;50.954;6.968;2022-12-10T00:39:50;100182.00;;;8.42;45.99
18784;BME280;9520;50.954;6.968;2022-12-10T00:40:12;100174.13;;;8.39;46.06
18784;BME280;9520;50.954;6.968;2022-12-10T00:40:34;100182.00;;;8.39;45.96
18784;BME280;9520;50.954;6.968;2022-12-10T00:40:55;100172.44;;;8.36;46.15
18784;BME280;9520;50.954;6.968;2022-12-10T00:41:17;100183.75;;;8.41;46.04
18784;BME280;9520;50.954;6.968;2022-12-10T00:41:40;100175.94;;;8.37;46.22
18784;BME280;9520;50.954;6.968;2022-12-10T00:42:01;100181.13;;;8.41;46.12
18784;BME280;9520;50.954;6.968;2022-12-10T00:42:23;100174.09;;;8.43;46.06
18784;BME280;9520;50.954;6.968;2022-12-10T00:42:46;100179.34;;;8.43;45.96
18784;BME280;9520;50.954;6.968;2022-12-10T00:43:08;100179.38;;;8.42;45.93
18784;BME280;9520;50.954;6.968;2022-12-10T00:43:30;100172.44;;;8.35;46.18
18784;BME280;9520;50.954;6.968;2022-12-10T00:43:52;100174.09;;;8.43;46.14
18784;BME280;9520;50.954;6.968;2022-12-10T00:44:14;100178.50;;;8.41;46.06
18784;BME280;9520;50.954;6.968;2022-12-10T00:44:37;100180.22;;;8.42;46.30
18784;BME280;9520;50.954;6.968;2022-12-10T00:44:59;100174.97;;;8.42;45.99
18784;BME280;9520;50.954;6.968;2022-12-10T00:45:20;100181.09;;;8.43;46.17
18784;BME280;9520;50.954;6.968;2022-12-10T00:45:42;100173.19;;;8.44;46.08
18784;BME280;9520;50.954;6.968;2022-12-10T00:46:04;100183.75;;;8.41;46.06
18784;BME280;9520;50.954;6.968;2022-12-10T00:46:27;100175.84;;;8.43;46.28
18784;BME280;9520;50.954;6.968;2022-12-10T00:46:49;100171.56;;;8.37;46.23
18784;BME280;9520;50.954;6.968;2022-12-10T00:47:11;100182.00;;;8.40;46.30
18784;BME280;9520;50.954;6.968;2022-12-10T00:47:32;100170.66;;;8.38;46.24
18784;BME280;9520;50.954;6.968;2022-12-10T00:47:54;100184.63;;;8.40;46.20
18784;BME280;9520;50.954;6.968;2022-12-10T00:48:17;100177.63;;;8.39;46.45
18784;BME280;9520;50.954;6.968;2022-12-10T00:48:39;100176.81;;;8.37;46.27
18784;BME280;9520;50.954;6.968;2022-12-10T00:49:02;100177.69;;;8.36;46.61
18784;BME280;9520;50.954;6.968;2022-12-10T00:49:24;100175.94;;;8.35;46.34
18784;BME280;9520;50.954;6.968;2022-12-10T00:49:47;100165.47;;;8.34;46.28
18784;BME280;9520;50.954;6.968;2022-12-10T00:50:09;100173.31;;;8.35;46.13
18784;BME280;9520;50.954;6.968;2022-12-10T00:50:31;100170.69;;;8.35;45.98
18784;BME280;9520;50.954;6.968;2022-12-10T00:50:57;100169.81;;;8.36;45.99
18784;BME280;9520;50.954;6.968;2022-12-10T00:51:21;100177.69;;;8.36;45.80
18784;BME280;9520;50.954;6.968;2022-12-10T00:51:44;100174.19;;;8.36;45.90
18784;BME280;9520;50.954;6.968;2022-12-10T00:52:05;100168.94;;;8.36;46.26
18784;BME280;9520;50.954;6.968;2022-12-10T00:52:27;100173.38;;;8.34;46.07
18784;BME280;9520;50.954;6.968;2022-12-10T00:52:49;100166.31;;;8.34;46.07
18784;BME280;9520;50.954;6.968;2022-12-10T00:53:10;100165.50;;;8.32;46.29
18784;BME280;9520;50.954;6.968;2022-12-10T00:53:34;100169.88;;;8.33;45.97
18784;BME280;9520;50.954;6.968;2022-12-10T00:53:57;100170.75;;;8.29;46.25
18784;BME280;9520;50.954;6.968;2022-12-10T00:54:19;100164.66;;;8.29;46.00
18784;BME280;9520;50.954;6.968;2022-12-10T00:54:41;100176.91;;;8.28;46.01
18784;BME280;9520;50.954;6.968;2022-12-10T00:55:04;100160.28;;;8.28;45.84
18784;BME280;9520;50.954;6.968;2022-12-10T00:55:26;100178.66;;;8.26;45.89
18784;BME280;9520;50.954;6.968;2022-12-10T00:55:48;100176.94;;;8.25;45.94
18784;BME280;9520;50.954;6.968;2022-12-10T00:56:11;100176.03;;;8.26;45.79
18784;BME280;9520;50.954;6.968;2022-12-10T00:56:34;100177.81;;;8.25;46.12
18784;BME280;9520;50.954;6.968;2022-12-10T00:56:56;100177.78;;;8.27;46.03
18784;BME280;9520;50.954;6.968;2022-12-10T00:57:17;100174.28;;;8.27;46.01
18784;BME280;9520;50.954;6.968;2022-12-10T00:57:39;100175.19;;;8.24;45.77
18784;BME280;9520;50.954;6.968;2022-12-10T00:58:02;100176.03;;;8.26;45.80
18784;BME280;9520;50.954;6.968;2022-12-10T00:58:26;100179.53;;;8.27;45.84
18784;BME280;9520;50.954;6.968;2022-12-10T00:58:49;100175.19;;;8.25;45.73
18784;BME280;9520;50.954;6.968;2022-12-10T00:59:10;100178.72;;;8.23;45.70
18784;BME280;9520;50.954;6.968;2022-12-10T00:59:34;100179.59;;;8.22;46.07
18784;BME280;9520;50.954;6.968;2022-12-10T00:59:55;100171.81;;;8.16;45.90
18784;BME280;9520;50.954;6.968;2022-12-10T01:00:17;100179.63;;;8.19;46.24
18784;BME280;9520;50.954;6.968;2022-12-10T01:00:39;100181.38;;;8.20;46.08
18784;BME280;9520;50.954;6.968;2022-12-10T01:01:08;100179.59;;;8.22;46.16
18784;BME280;9520;50.954;6.968;2022-12-10T01:01:33;100170.84;;;8.23;45.98
18784;BME280;9520;50.954;6.968;2022-12-10T01:01:55;100182.22;;;8.23;45.92
18784;BME280;9520;50.954;6.968;2022-12-10T01:02:17;100183.97;;;8.23;46.13
18784;BME280;9520;50.954;6.968;2022-12-10T01:02:39;100179.59;;;8.22;45.91
18784;BME280;9520;50.954;6.968;2022-12-10T01:03:01;100176.97;;;8.22;46.22
18784;BME280;9520;50.954;6.968;2022-12-10T01:03:23;100188.38;;;8.22;46.29
18784;BME280;9520;50.954;6.968;2022-12-10T01:03:45;100176.97;;;8.22;46.13
18784;BME280;9520;50.954;6.968;2022-12-10T01:04:10;100175.19;;;8.24;45.81
18784;BME280;9520;50.954;6.968;2022-12-10T01:04:34;100179.59;;;8.23;45.60
18784;BME280;9520;50.954;6.968;2022-12-10T01:04:56;100175.22;;;8.22;45.64
18784;BME280;9520;50.954;6.968;2022-12-10T01:05:18;100165.66;;;8.17;45.66
18784;BME280;9520;50.954;6.968;2022-12-10T01:05:39;100177.88;;;8.21;45.85
18784;BME280;9520;50.954;6.968;2022-12-10T01:06:08;100176.13;;;8.20;45.77
18784;BME280;9520;50.954;6.968;2022-12-10T01:06:33;100175.31;;;8.15;45.98
18784;BME280;9520;50.954;6.968;2022-12-10T01:06:55;100183.19;;;8.16;45.89
18784;BME280;9520;50.954;6.968;2022-12-10T01:07:16;100171.88;;;8.10;45.77
18784;BME280;9520;50.954;6.968;2022-12-10T01:07:39;100180.56;;;8.15;46.15
18784;BME280;9520;50.954;6.968;2022-12-10T01:08:00;100181.44;;;8.15;45.74
18784;BME280;9520;50.954;6.968;2022-12-10T01:08:22;100187.56;;;8.16;45.71
18784;BME280;9520;50.954;6.968;2022-12-10T01:08:44;100185.81;;;8.16;45.70
18784;BME280;9520;50.954;6.968;2022-12-10T01:09:10;100183.19;;;8.16;45.84
18784;BME280;9520;50.954;6.968;2022-12-10T01:09:33;100184.06;;;8.15;45.82
18784;BME280;9520;50.954;6.968;2022-12-10T01:09:54;100184.94;;;8.14;46.06
18784;BME280;9520;50.954;6.968;2022-12-10T01:10:16;100184.13;;;8.12;45.80
18784;BME280;9520;50.954;6.968;2022-12-10T01:10:38;100178.88;;;8.11;45.72
18784;BME280;9520;50.954;6.968;2022-12-10T01:11:00;100177.13;;;8.13;45.89
18784;BME280;9520;50.954;6.968;2022-12-10T01:11:25;100184.13;;;8.12;45.74
18784;BME280;9520;50.954;6.968;2022-12-10T01:11:48;100173.75;;;8.02;45.73
18784;BME280;9520;50.954;6.968;2022-12-10T01:12:10;100184.19;;;8.08;46.10
18784;BME280;9520;50.954;6.968;2022-12-10T01:12:31;100189.44;;;8.08;45.76
18784;BME280;9520;50.954;6.968;2022-12-10T01:12:54;100182.44;;;8.07;46.03
18784;BME280;9520;50.954;6.968;2022-12-10T01:13:18;100184.19;;;8.06;45.67
18784;BME280;9520;50.954;6.968;2022-12-10T01:13:40;100186.81;;;8.08;45.82
18784;BME280;9520;50.954;6.968;2022-12-10T01:14:03;100182.44;;;8.07;45.85
18784;BME280;9520;50.954;6.968;2022-12-10T01:14:28;100185.13;;;8.04;46.11
18784;BME280;9520;50.954;6.968;2022-12-10T01:14:51;100167.75;;;7.91;46.03
18784;BME280;9520;50.954;6.968;2022-12-10T01:15:13;100183.38;;;8.01;46.04
18784;BME280;9520;50.954;6.968;2022-12-10T01:15:37;100187.78;;;7.99;46.00
18784;BME280;9520;50.954;6.968;2022-12-10T01:16:00;100186.06;;;7.98;45.95
18784;BME280;9520;50.954;6.968;2022-12-10T01:16:22;100186.94;;;7.99;46.00
18784;BME280;9520;50.954;6.968;2022-12-10T01:16:45;100182.56;;;7.98;46.26
18784;BME280;9520;50.954;6.968;2022-12-10T01:17:07;100186.94;;;7.97;46.25
18784;BME280;9520;50.954;6.968;2022-12-10T01:17:29;100191.31;;;7.97;46.11
18784;BME280;9520;50.954;6.968;2022-12-10T01:17:51;100192.25;;;7.94;45.93
18784;BME280;9520;50.954;6.968;2022-12-10T01:18:13;100187.00;;;7.91;46.11
18784;BME280;9520;50.954;6.968;2022-12-10T01:18:35;100188.81;;;7.89;46.17
18784;BME280;9520;50.954;6.968;2022-12-10T01:18:57;100170.56;;;7.78;46.33
18784;BME280;9520;50.954;6.968;2022-12-10T01:19:21;100195.75;;;7.93;46.19
18784;BME280;9520;50.954;6.968;2022-12-10T01:19:44;100190.44;;;7.96;46.29
18784;BME280;9520;50.954;6.968;2022-12-10T01:20:07;100195.69;;;7.98;46.15
18784;BME280;9520;50.954;6.968;2022-12-10T01:20:29;100190.47;;;7.95;45.83
18784;BME280;9520;50.954;6.968;2022-12-10T01:20:51;100200.06;;;7.99;46.04
18784;BME280;9520;50.954;6.968;2022-12-10T01:21:15;100169.63;;;7.82;46.03
18784;BME280;9520;50.954;6.968;2022-12-10T01:21:38;100200.06;;;7.96;46.10
18784;BME280;9520;50.954;6.968;2022-12-10T01:22:01;100179.19;;;7.87;46.17
18784;BME280;9520;50.954;6.968;2022-12-10T01:22:23;100195.69;;;7.98;46.15
18784;BME280;9520;50.954;6.968;2022-12-10T01:22:45;100195.69;;;7.96;45.88
18784;BME280;9520;50.954;6.968;2022-12-10T01:23:08;100196.56;;;7.95;45.83
18784;BME280;9520;50.954;6.968;2022-12-10T01:23:31;100200.13;;;7.94;46.03
18784;BME280;9520;50.954;6.968;2022-12-10T01:23:53;100195.75;;;7.93;45.93
18784;BME280;9520;50.954;6.968;2022-12-10T01:24:16;100189.63;;;7.93;46.05
18784;BME280;9520;50.954;6.968;2022-12-10T01:24:38;100192.28;;;7.90;46.11
18784;BME280;9520;50.954;6.968;2022-12-10T01:25:00;100195.75;;;7.93;46.16
18784;BME280;9520;50.954;6.968;2022-12-10T01:25:22;100201.84;;;7.95;46.25
18784;BME280;9520;50.954;6.968;2022-12-10T01:25:44;100196.63;;;7.94;46.54
18784;BME280;9520;50.954;6.968;2022-12-10T01:26:07;100191.38;;;7.92;46.17
18784;BME280;9520;50.954;6.968;2022-12-10T01:26:31;100202.75;;;7.91;45.93
18784;BME280;9520;50.954;6.968;2022-12-10T01:26:55;100196.63;;;7.94;46.07
18784;BME280;9520;50.954;6.968;2022-12-10T01:27:18;100199.25;;;7.94;45.85
18784;BME280;9520;50.954;6.968;2022-12-10T01:27:39;100202.75;;;7.94;45.61
18784;BME280;9520;50.954;6.968;2022-12-10T01:28:01;100207.13;;;7.92;45.61
18784;BME280;9520;50.954;6.968;2022-12-10T01:28:22;100200.13;;;7.93;45.68
18784;BME280;9520;50.954;6.968;2022-12-10T01:28:45;100198.38;;;7.92;45.94
18784;BME280;9520;50.954;6.968;2022-12-10T01:29:09;100205.38;;;7.93;45.89
18784;BME280;9520;50.954;6.968;2022-12-10T01:29:34;100189.69;;;7.87;46.03
18784;BME280;9520;50.954;6.968;2022-12-10T01:29:55;100199.25;;;7.91;46.12
18784;BME280;9520;50.954;6.968;2022-12-10T01:30:17;100194.88;;;7.93;45.97
18784;BME280;9520;50.954;6.968;2022-12-10T01:30:40;100201.88;;;7.94;46.09
18784;BME280;9520;50.954;6.968;2022-12-10T01:31:05;100206.25;;;7.93;45.81
18784;BME280;9520;50.954;6.968;2022-12-10T01:31:29;100201.88;;;7.91;46.01
18784;BME280;9520;50.954;6.968;2022-12-10T01:31:52;100205.38;;;7.93;45.79
18784;BME280;9520;50.954;6.968;2022-12-10T01:32:26;100203.59;;;7.95;45.94
18784;BME280;9520;50.954;6.968;2022-12-10T01:32:48;100197.50;;;7.93;45.97
18784;BME280;9520;50.954;6.968;2022-12-10T01:33:09;100205.31;;;7.96;45.78
18784;BME280;9520;50.954;6.968;2022-12-10T01:33:31;100208.00;;;7.93;46.06
18784;BME280;9520;50.954;6.968;2022-12-10T01:33:54;100202.75;;;7.91;45.88
18784;BME280;9520;50.954;6.968;2022-12-10T01:34:16;100201.06;;;7.86;46.20
18784;BME280;9520;50.954;6.968;2022-12-10T01:34:39;100203.75;;;7.82;45.92
18784;BME280;9520;50.954;6.968;2022-12-10T01:35:01;100210.69;;;7.87;46.12
18784;BME280;9520;50.954;6.968;2022-12-10T01:35:23;100202.00;;;7.80;45.90
18784;BME280;9520;50.954;6.968;2022-12-10T01:35:45;100208.94;;;7.89;46.06
18784;BME280;9520;50.954;6.968;2022-12-10T01:36:11;100200.19;;;7.87;45.94
18784;BME280;9520;50.954;6.968;2022-12-10T01:36:35;100201.06;;;7.87;46.04
18784;BME280;9520;50.954;6.968;2022-12-10T01:36:58;100207.19;;;7.89;46.05
18784;BME280;9520;50.954;6.968;2022-12-10T01:37:19;100205.44;;;7.85;45.79
18784;BME280;9520;50.954;6.968;2022-12-10T01:37:41;100212.38;;;7.94;45.71
18784;BME280;9520;50.954;6.968;2022-12-10T01:38:03;100204.47;;;7.95;45.72
18784;BME280;9520;50.954;6.968;2022-12-10T01:38:25;100211.44;;;7.98;45.72
18784;BME280;9520;50.954;6.968;2022-12-10T01:38:47;100207.94;;;7.97;45.40
18784;BME280;9520;50.954;6.968;2022-12-10T01:39:11;100207.06;;;7.97;45.48
18784;BME280;9520;50.954;6.968;2022-12-10T01:39:33;100210.56;;;7.97;45.59
18784;BME280;9520;50.954;6.968;2022-12-10T01:39:55;100207.09;;;7.95;45.43
18784;BME280;9520;50.954;6.968;2022-12-10T01:40:18;100214.13;;;7.93;45.78
18784;BME280;9520;50.954;6.968;2022-12-10T01:40:40;100220.25;;;7.94;45.76
18784;BME280;9520;50.954;6.968;2022-12-10T01:41:02;100215.88;;;7.93;45.50
18784;BME280;9520;50.954;6.968;2022-12-10T01:41:28;100216.75;;;7.93;45.52
18784;BME280;9520;50.954;6.968;2022-12-10T01:41:51;100201.94;;;7.85;45.93
18784;BME280;9520;50.954;6.968;2022-12-10T01:42:14;100221.13;;;7.93;45.83
18784;BME280;9520;50.954;6.968;2022-12-10T01:42:36;100214.09;;;7.95;45.65
18784;BME280;9520;50.954;6.968;2022-12-10T01:42:58;100215.84;;;7.96;45.48
18784;BME280;9520;50.954;6.968;2022-12-10T01:43:21;100218.50;;;7.91;45.81
18784;BME280;9520;50.954;6.968;2022-12-10T01:43:55;100223.75;;;7.91;45.43
18784;BME280;9520;50.954;6.968;2022-12-10T01:45:16;100220.31;;;7.86;45.32
18784;BME280;9520;50.954;6.968;2022-12-10T01:45:40;100222.97;;;7.85;45.60
18784;BME280;9520;50.954;6.968;2022-12-10T01:46:02;100212.56;;;7.78;45.61
18784;BME280;9520;50.954;6.968;2022-12-10T01:46:26;100222.97;;;7.85;45.65
18784;BME280;9520;50.954;6.968;2022-12-10T01:46:51;100219.50;;;7.82;45.54
18784;BME280;9520;50.954;6.968;2022-12-10T01:47:13;100221.25;;;7.82;45.60
18784;BME280;9520;50.954;6.968;2022-12-10T01:47:36;100211.69;;;7.76;45.97
18784;BME280;9520;50.954;6.968;2022-12-10T01:47:58;100227.38;;;7.84;45.99
18784;BME280;9520;50.954;6.968;2022-12-10T01:48:26;100226.44;;;7.85;46.22
18784;BME280;9520;50.954;6.968;2022-12-10T01:48:50;100227.31;;;7.86;46.22
18784;BME280;9520;50.954;6.968;2022-12-10T01:49:16;100222.94;;;7.86;45.83
18784;BME280;9520;50.954;6.968;2022-12-10T01:49:40;100225.59;;;7.85;45.71
18784;BME280;9520;50.954;6.968;2022-12-10T01:50:04;100227.31;;;7.87;45.82
18784;BME280;9520;50.954;6.968;2022-12-10T01:50:27;100224.69;;;7.89;45.85
18784;BME280;9520;50.954;6.968;2022-12-10T01:50:48;100223.81;;;7.88;45.81
18784;BME280;9520;50.954;6.968;2022-12-10T01:51:10;100221.16;;;7.90;45.67
18784;BME280;9520;50.954;6.968;2022-12-10T01:51:35;100222.06;;;7.87;45.67
18784;BME280;9520;50.954;6.968;2022-12-10T01:51:57;100220.31;;;7.89;45.85
18784;BME280;9520;50.954;6.968;2022-12-10T01:52:22;100229.03;;;7.90;45.69
18784;BME280;9520;50.954;6.968;2022-12-10T01:52:45;100228.13;;;7.92;45.72
18784;BME280;9520;50.954;6.968;2022-12-10T01:53:07;100221.13;;;7.91;45.78
18784;BME280;9520;50.954;6.968;2022-12-10T01:53:30;100226.38;;;7.93;45.52
18784;BME280;9520;50.954;6.968;2022-12-10T01:53:52;100217.63;;;7.92;45.53
18784;BME280;9520;50.954;6.968;2022-12-10T01:54:20;100213.31;;;7.88;45.72
18784;BME280;9520;50.954;6.968;2022-12-10T01:54:44;100229.88;;;7.92;45.53
18784;BME280;9520;50.954;6.968;2022-12-10T01:55:47;100224.66;;;7.90;45.64
18784;BME280;9520;50.954;6.968;2022-12-10T01:56:10;100222.88;;;7.92;45.80
18784;BME280;9520;50.954;6.968;2022-12-10T01:56:35;100221.13;;;7.91;45.66
18784;BME280;9520;50.954;6.968;2022-12-10T01:56:59;100224.63;;;7.92;45.66
18784;BME280;9520;50.954;6.968;2022-12-10T01:57:24;100222.00;;;7.92;45.63
18784;BME280;9520;50.954;6.968;2022-12-10T01:57:47;100226.41;;;7.90;45.69
18784;BME280;9520;50.954;6.968;2022-12-10T01:58:11;100227.31;;;7.89;46.16
18784;BME280;9520;50.954;6.968;2022-12-10T01:58:34;100221.16;;;7.90;45.91
18784;BME280;9520;50.954;6.968;2022-12-10T01:58:56;100215.91;;;7.90;45.59
18784;BME280;9520;50.954;6.968;2022-12-10T01:59:18;100216.81;;;7.89;45.55
18784;BME280;9520;50.954;6.968;2022-12-10T01:59:41;100217.66;;;7.91;45.51
18784;BME280;9520;50.954;6.968;2022-12-10T02:00:05;100221.13;;;7.93;45.53
18784;BME280;9520;50.954;6.968;2022-12-10T02:00:43;100222.88;;;7.92;45.65
18784;BME280;9520;50.954;6.968;2022-12-10T02:01:10;100216.81;;;7.89;45.62
18784;BME280;9520;50.954;6.968;2022-12-10T02:01:38;100223.75;;;7.93;45.50
18784;BME280;9520;50.954;6.968;2022-12-10T02:02:07;100222.03;;;7.90;45.51
18784;BME280;9520;50.954;6.968;2022-12-10T02:02:38;100221.19;;;7.85;45.81
18784;BME280;9520;50.954;6.968;2022-12-10T02:03:08;100213.31;;;7.87;46.16
18784;BME280;9520;50.954;6.968;2022-12-10T02:03:38;100221.19;;;7.87;45.79
18784;BME280;9520;50.954;6.968;2022-12-10T02:04:10;100222.97;;;7.85;45.79
18784;BME280;9520;50.954;6.968;2022-12-10T02:04:45;100224.69;;;7.87;45.74